createdAt,value
2023-04-02T00:00:21.316Z,27.53
2023-04-02T00:01:21.358Z,27.56
2023-04-02T00:02:21.403Z,27.54
2023-04-02T00:03:21.507Z,27.53
2023-04-02T00:04:21.368Z,27.53
2023-04-02T00:05:21.372Z,27.53
2023-04-02T00:06:21.378Z,27.53
2023-04-02T00:07:21.410Z,27.56
2023-04-02T00:08:21.392Z,27.53
2023-04-02T00:09:21.412Z,27.54
2023-04-02T00:10:22.313Z,27.53
2023-04-02T00:11:21.443Z,27.54
2023-04-02T00:12:21.427Z,27.54
2023-04-02T00:13:21.432Z,27.53
2023-04-02T00:14:21.443Z,27.53
2023-04-02T00:15:21.428Z,27.54
2023-04-02T00:16:21.446Z,27.53
2023-04-02T00:17:21.429Z,27.54
2023-04-02T00:18:21.496Z,27.53
2023-04-02T00:19:21.416Z,27.51
2023-04-02T00:20:21.410Z,27.53
2023-04-02T00:21:21.420Z,27.54
2023-04-02T00:22:21.451Z,27.53
2023-04-02T00:23:21.455Z,27.53
2023-04-02T00:24:21.436Z,27.53
2023-04-02T00:25:21.449Z,27.54
2023-04-02T00:26:21.458Z,27.51
2023-04-02T00:27:21.470Z,27.51
2023-04-02T00:28:21.455Z,27.51
2023-04-02T00:29:21.452Z,27.54
2023-04-02T00:30:21.453Z,27.53
2023-04-02T00:31:21.476Z,27.53
2023-04-02T00:32:21.519Z,27.53
2023-04-02T00:33:21.461Z,27.51
2023-04-02T00:34:21.477Z,27.51
2023-04-02T00:35:21.457Z,27.53
2023-04-02T00:36:21.497Z,27.51
2023-04-02T00:37:21.471Z,27.51
2023-04-02T00:38:21.472Z,27.53
2023-04-02T00:39:21.448Z,27.53
2023-04-02T00:40:21.461Z,27.51
2023-04-02T00:41:21.445Z,27.53
2023-04-02T00:42:21.459Z,27.51
2023-04-02T00:43:21.455Z,27.50
2023-04-02T00:44:21.484Z,27.51
2023-04-02T00:45:21.455Z,27.53
2023-04-02T00:46:21.545Z,27.50
2023-04-02T00:47:21.442Z,27.50
2023-04-02T00:48:21.526Z,27.50
2023-04-02T00:49:21.454Z,27.51
2023-04-02T00:50:21.492Z,27.50
2023-04-02T00:51:21.441Z,27.50
2023-04-02T00:52:21.477Z,27.53
2023-04-02T00:53:21.454Z,27.51
2023-04-02T00:54:21.430Z,27.51
2023-04-02T00:55:21.453Z,27.50
2023-04-02T00:56:21.457Z,27.51
2023-04-02T00:57:21.499Z,27.53
2023-04-02T00:58:21.460Z,27.51
2023-04-02T00:59:21.437Z,27.50
2023-04-02T01:00:21.471Z,27.50
2023-04-02T01:01:21.537Z,27.51
2023-04-02T01:02:21.479Z,27.51
2023-04-02T01:03:21.544Z,27.50
2023-04-02T01:04:21.452Z,27.51
2023-04-02T01:05:21.471Z,27.49
2023-04-02T01:06:21.492Z,27.50
2023-04-02T01:07:21.470Z,27.51
2023-04-02T01:08:21.505Z,27.49
2023-04-02T01:09:21.477Z,27.50
2023-04-02T01:10:21.509Z,27.50
2023-04-02T01:11:21.453Z,27.50
2023-04-02T01:12:21.478Z,27.50
2023-04-02T01:13:21.487Z,27.49
2023-04-02T01:14:21.456Z,27.50
2023-04-02T01:15:21.480Z,27.49
2023-04-02T01:16:21.506Z,27.51
2023-04-02T01:17:21.444Z,27.49
2023-04-02T01:18:21.436Z,27.51
2023-04-02T01:19:21.449Z,27.51
2023-04-02T01:20:21.446Z,27.50
2023-04-02T01:21:21.460Z,27.50
2023-04-02T01:22:21.490Z,27.49
2023-04-02T01:23:21.459Z,27.49
2023-04-02T01:24:21.476Z,27.51
2023-04-02T01:25:21.451Z,27.51
2023-04-02T01:26:21.463Z,27.50
2023-04-02T01:27:21.479Z,27.50
2023-04-02T01:28:21.468Z,27.50
2023-04-02T01:29:21.473Z,27.51
2023-04-02T01:30:21.491Z,27.49
2023-04-02T01:31:21.488Z,27.49
2023-04-02T01:32:21.495Z,27.50
2023-04-02T01:33:21.487Z,27.49
2023-04-02T01:34:21.725Z,27.49
2023-04-02T01:35:21.467Z,27.49
2023-04-02T01:36:21.487Z,27.50
2023-04-02T01:37:21.449Z,27.49
2023-04-02T01:38:21.453Z,27.47
2023-04-02T01:39:21.456Z,27.49
2023-04-02T01:40:21.467Z,27.50
2023-04-02T01:41:21.442Z,27.49
2023-04-02T01:42:21.469Z,27.49
2023-04-02T01:43:21.468Z,27.50
2023-04-02T01:44:21.504Z,27.49
2023-04-02T01:45:21.443Z,27.50
2023-04-02T01:46:21.450Z,27.49
2023-04-02T01:47:21.434Z,27.50
2023-04-02T01:48:21.450Z,27.49
2023-04-02T01:49:21.445Z,27.50
2023-04-02T01:50:21.440Z,27.50
2023-04-02T01:51:21.503Z,27.49
2023-04-02T01:52:21.438Z,27.50
2023-04-02T01:53:21.442Z,27.49
2023-04-02T01:54:21.488Z,27.50
2023-04-02T01:55:21.450Z,27.50
2023-04-02T01:56:21.440Z,27.47
2023-04-02T01:57:21.528Z,27.49
2023-04-02T01:58:21.459Z,27.47
2023-04-02T01:59:21.455Z,27.49
2023-04-02T02:00:21.445Z,27.49
2023-04-02T02:01:21.586Z,27.49
2023-04-02T02:02:21.522Z,27.49
2023-04-02T02:03:21.522Z,27.47
2023-04-02T02:04:21.431Z,27.47
2023-04-02T02:05:21.505Z,27.49
2023-04-02T02:06:21.445Z,27.47
2023-04-02T02:07:21.442Z,27.47
2023-04-02T02:08:21.522Z,27.47
2023-04-02T02:09:21.453Z,27.47
2023-04-02T02:10:21.471Z,27.47
2023-04-02T02:11:21.588Z,27.47
2023-04-02T02:12:21.453Z,27.46
2023-04-02T02:13:21.464Z,27.46
2023-04-02T02:14:21.460Z,27.46
2023-04-02T02:15:21.456Z,27.47
2023-04-02T02:16:21.466Z,27.50
2023-04-02T02:17:21.574Z,27.49
2023-04-02T02:18:21.464Z,27.46
2023-04-02T02:19:21.478Z,27.47
2023-04-02T02:20:21.477Z,27.47
2023-04-02T02:21:21.563Z,27.47
2023-04-02T02:22:21.509Z,27.46
2023-04-02T02:23:21.527Z,27.47
2023-04-02T02:24:21.494Z,27.44
2023-04-02T02:25:21.483Z,27.47
2023-04-02T02:26:21.472Z,27.47
2023-04-02T02:27:21.483Z,27.47
2023-04-02T02:28:21.472Z,27.46
2023-04-02T02:29:21.493Z,27.46
2023-04-02T02:30:21.499Z,27.46
2023-04-02T02:31:21.566Z,27.46
2023-04-02T02:32:21.562Z,27.46
2023-04-02T02:33:21.548Z,27.46
2023-04-02T02:34:21.542Z,27.47
2023-04-02T02:35:21.551Z,27.44
2023-04-02T02:36:21.587Z,27.47
2023-04-02T02:37:21.551Z,27.47
2023-04-02T02:38:21.556Z,27.44
2023-04-02T02:39:21.554Z,27.47
2023-04-02T02:40:21.584Z,27.46
2023-04-02T02:41:21.628Z,27.47
2023-04-02T02:42:21.577Z,27.44
2023-04-02T02:43:21.598Z,27.47
2023-04-02T02:44:21.608Z,27.46
2023-04-02T02:45:21.605Z,27.44
2023-04-02T02:46:21.638Z,27.46
2023-04-02T02:47:21.624Z,27.46
2023-04-02T02:48:21.616Z,27.46
2023-04-02T02:49:21.608Z,27.46
2023-04-02T02:50:21.601Z,27.46
2023-04-02T02:51:21.677Z,27.44
2023-04-02T02:52:21.625Z,27.44
2023-04-02T02:53:21.607Z,27.44
2023-04-02T02:54:21.630Z,27.43
2023-04-02T02:55:21.630Z,27.44
2023-04-02T02:56:21.632Z,27.43
2023-04-02T02:57:21.680Z,27.47
2023-04-02T02:58:21.622Z,27.43
2023-04-02T02:59:21.619Z,27.46
2023-04-02T03:00:21.642Z,27.46
2023-04-02T03:01:21.882Z,27.44
2023-04-02T03:02:21.720Z,27.43
2023-04-02T03:03:21.823Z,27.43
2023-04-02T03:04:21.688Z,27.46
2023-04-02T03:05:21.692Z,27.44
2023-04-02T03:06:21.694Z,27.46
2023-04-02T03:07:21.723Z,27.46
2023-04-02T03:08:21.713Z,27.43
2023-04-02T03:09:21.722Z,27.46
2023-04-02T03:10:21.722Z,27.43
2023-04-02T03:11:21.818Z,27.44
2023-04-02T03:12:21.729Z,27.44
2023-04-02T03:13:21.766Z,27.43
2023-04-02T03:14:21.777Z,27.44
2023-04-02T03:15:21.775Z,27.43
2023-04-02T03:16:21.856Z,27.43
2023-04-02T03:17:21.816Z,27.44
2023-04-02T03:18:21.805Z,27.43
2023-04-02T03:19:21.804Z,27.43
2023-04-02T03:20:21.866Z,27.46
2023-04-02T03:21:21.951Z,27.43
2023-04-02T03:22:21.849Z,27.46
2023-04-02T03:23:21.891Z,27.40
2023-04-02T03:24:21.893Z,27.43
2023-04-02T03:25:21.886Z,27.43
2023-04-02T03:26:21.906Z,27.43
2023-04-02T03:27:21.917Z,27.46
2023-04-02T03:28:21.894Z,27.46
2023-04-02T03:29:21.901Z,27.44
2023-04-02T03:30:21.919Z,27.44
2023-04-02T03:31:21.951Z,27.43
2023-04-02T03:32:21.904Z,27.44
2023-04-02T03:33:21.911Z,27.41
2023-04-02T03:34:21.925Z,27.43
2023-04-02T03:35:21.907Z,27.44
2023-04-02T03:36:22.065Z,27.44
2023-04-02T03:37:21.931Z,27.41
2023-04-02T03:38:21.943Z,27.43
2023-04-02T03:39:21.921Z,27.44
2023-04-02T03:40:21.916Z,27.43
2023-04-02T03:41:21.987Z,27.43
2023-04-02T03:42:21.925Z,27.44
2023-04-02T03:43:21.940Z,27.44
2023-04-02T03:44:21.930Z,27.43
2023-04-02T03:45:21.907Z,27.41
2023-04-02T03:46:21.972Z,27.41
2023-04-02T03:47:21.969Z,27.46
2023-04-02T03:48:21.926Z,27.46
2023-04-02T03:49:21.928Z,27.43
2023-04-02T03:50:21.909Z,27.41
2023-04-02T03:51:21.992Z,27.44
2023-04-02T03:52:21.928Z,27.41
2023-04-02T03:53:21.926Z,27.41
2023-04-02T03:54:21.946Z,27.43
2023-04-02T03:55:21.943Z,27.40
2023-04-02T03:56:21.948Z,27.43
2023-04-02T03:57:21.999Z,27.41
2023-04-02T03:58:21.949Z,27.40
2023-04-02T03:59:21.935Z,27.43
2023-04-02T04:00:21.935Z,27.43
2023-04-02T04:01:21.955Z,27.43
2023-04-02T04:02:22.005Z,27.41
2023-04-02T04:03:21.962Z,27.43
2023-04-02T04:04:22.016Z,27.41
2023-04-02T04:05:21.963Z,27.43
2023-04-02T04:06:21.963Z,27.43
2023-04-02T04:07:21.980Z,27.39
2023-04-02T04:08:21.984Z,27.41
2023-04-02T04:09:21.975Z,27.43
2023-04-02T04:10:21.963Z,27.41
2023-04-02T04:11:22.053Z,27.43
2023-04-02T04:12:22.000Z,27.40
2023-04-02T04:13:21.998Z,27.41
2023-04-02T04:14:22.013Z,27.41
2023-04-02T04:15:22.007Z,27.40
2023-04-02T04:16:22.103Z,27.41
2023-04-02T04:17:22.009Z,27.41
2023-04-02T04:18:22.022Z,27.41
2023-04-02T04:19:22.022Z,27.40
2023-04-02T04:20:22.119Z,27.40
2023-04-02T04:21:22.127Z,27.40
2023-04-02T04:22:22.037Z,27.41
2023-04-02T04:23:22.036Z,27.43
2023-04-02T04:24:22.018Z,27.41
2023-04-02T04:25:22.034Z,27.40
2023-04-02T04:26:22.045Z,27.41
2023-04-02T04:27:22.074Z,27.41
2023-04-02T04:28:22.086Z,27.41
2023-04-02T04:29:22.079Z,27.43
2023-04-02T04:30:22.126Z,27.43
2023-04-02T04:31:24.612Z,27.40
2023-04-02T04:32:22.097Z,27.40
2023-04-02T04:33:22.094Z,27.41
2023-04-02T04:34:22.101Z,27.44
2023-04-02T04:35:22.073Z,27.40
2023-04-02T04:36:22.074Z,27.41
2023-04-02T04:37:22.065Z,27.41
2023-04-02T04:38:22.063Z,27.41
2023-04-02T04:39:22.050Z,27.40
2023-04-02T04:40:22.038Z,27.40
2023-04-02T04:41:22.068Z,27.40
2023-04-02T04:42:22.051Z,27.41
2023-04-02T04:43:22.053Z,27.39
2023-04-02T04:44:22.056Z,27.39
2023-04-02T04:45:22.029Z,27.40
2023-04-02T04:46:22.112Z,27.40
2023-04-02T04:47:22.004Z,27.41
2023-04-02T04:48:22.418Z,27.40
2023-04-02T04:49:21.990Z,27.40
2023-04-02T04:50:22.001Z,27.41
2023-04-02T04:51:21.981Z,27.39
2023-04-02T04:52:21.964Z,27.40
2023-04-02T04:53:21.972Z,27.39
2023-04-02T04:54:21.967Z,27.40
2023-04-02T04:55:21.963Z,27.41
2023-04-02T04:56:21.934Z,27.37
2023-04-02T04:57:21.983Z,27.40
2023-04-02T04:58:21.928Z,27.40
2023-04-02T04:59:21.912Z,27.40
2023-04-02T05:00:21.932Z,27.39
2023-04-02T05:01:21.934Z,27.41
2023-04-02T05:02:21.912Z,27.41
2023-04-02T05:03:21.903Z,27.41
2023-04-02T05:04:21.934Z,27.41
2023-04-02T05:05:21.910Z,27.40
2023-04-02T05:06:21.858Z,27.40
2023-04-02T05:07:21.871Z,27.40
2023-04-02T05:08:21.857Z,27.40
2023-04-02T05:09:21.856Z,27.40
2023-04-02T05:10:21.887Z,27.39
2023-04-02T05:11:21.829Z,27.41
2023-04-02T05:12:21.838Z,27.40
2023-04-02T05:13:21.837Z,27.40
2023-04-02T05:14:21.819Z,27.40
2023-04-02T05:15:21.807Z,27.39
2023-04-02T05:16:21.823Z,27.40
2023-04-02T05:17:21.833Z,27.40
2023-04-02T05:18:21.810Z,27.41
2023-04-02T05:19:21.772Z,27.39
2023-04-02T05:20:21.842Z,27.40
2023-04-02T05:21:21.749Z,27.40
2023-04-02T05:22:21.770Z,27.40
2023-04-02T05:23:21.753Z,27.39
2023-04-02T05:24:21.731Z,27.40
2023-04-02T05:25:21.726Z,27.40
2023-04-02T05:26:21.728Z,27.40
2023-04-02T05:27:21.725Z,27.40
2023-04-02T05:28:21.720Z,27.41
2023-04-02T05:29:21.688Z,27.39
2023-04-02T05:30:21.807Z,27.40
2023-04-02T05:31:21.747Z,27.40
2023-04-02T05:32:21.669Z,27.43
2023-04-02T05:33:21.689Z,27.41
2023-04-02T05:34:21.652Z,27.43
2023-04-02T05:35:21.654Z,27.41
2023-04-02T05:36:21.731Z,27.39
2023-04-02T05:37:21.684Z,27.41
2023-04-02T05:38:21.664Z,27.43
2023-04-02T05:39:21.641Z,27.41
2023-04-02T05:40:21.664Z,27.41
2023-04-02T05:41:21.628Z,27.43
2023-04-02T05:42:21.618Z,27.44
2023-04-02T05:43:21.600Z,27.46
2023-04-02T05:44:21.610Z,27.44
2023-04-02T05:45:21.596Z,27.44
2023-04-02T05:46:21.612Z,27.41
2023-04-02T05:47:21.624Z,27.46
2023-04-02T05:48:21.597Z,27.44
2023-04-02T05:49:21.572Z,27.46
2023-04-02T05:50:21.579Z,27.44
2023-04-02T05:51:21.536Z,27.47
2023-04-02T05:52:21.537Z,27.46
2023-04-02T05:53:21.560Z,27.46
2023-04-02T05:54:21.535Z,27.44
2023-04-02T05:55:21.536Z,27.47
2023-04-02T05:56:21.500Z,27.50
2023-04-02T05:57:23.121Z,27.46
2023-04-02T05:59:22.481Z,27.50
2023-04-02T06:00:21.495Z,27.47
2023-04-02T06:01:21.490Z,27.51
2023-04-02T06:02:21.490Z,27.50
2023-04-02T06:03:21.525Z,27.49
2023-04-02T06:04:21.458Z,27.50
2023-04-02T06:05:21.446Z,27.51
2023-04-02T06:06:21.432Z,27.51
2023-04-02T06:07:21.422Z,27.50
2023-04-02T06:08:21.420Z,27.53
2023-04-02T06:09:21.430Z,27.54
2023-04-02T06:10:22.857Z,27.56
2023-04-02T06:11:21.410Z,27.58
2023-04-02T06:12:21.410Z,27.61
2023-04-02T06:13:21.377Z,27.61
2023-04-02T06:14:21.404Z,27.64
2023-04-02T06:15:21.398Z,27.65
2023-04-02T06:16:21.382Z,27.67
2023-04-02T06:17:21.398Z,27.67
2023-04-02T06:18:21.365Z,27.68
2023-04-02T06:19:21.958Z,27.71
2023-04-02T06:20:21.357Z,27.72
2023-04-02T06:21:21.319Z,27.72
2023-04-02T06:22:21.322Z,27.72
2023-04-02T06:23:21.363Z,27.77
2023-04-02T06:24:21.292Z,27.77
2023-04-02T06:25:21.301Z,27.78
2023-04-02T06:26:21.298Z,27.78
2023-04-02T06:27:21.315Z,27.81
2023-04-02T06:28:21.326Z,27.84
2023-04-02T06:29:21.251Z,27.88
2023-04-02T06:30:21.261Z,27.88
2023-04-02T06:31:21.312Z,27.91
2023-04-02T06:32:21.246Z,27.95
2023-04-02T06:33:21.279Z,27.97
2023-04-02T06:34:21.208Z,28.00
2023-04-02T06:35:21.216Z,28.05
2023-04-02T06:36:21.261Z,28.05
2023-04-02T06:37:21.208Z,28.11
2023-04-02T06:38:21.184Z,28.15
2023-04-02T06:39:21.182Z,28.16
2023-04-02T06:40:21.180Z,28.22
2023-04-02T06:41:21.155Z,28.23
2023-04-02T06:42:21.174Z,28.22
2023-04-02T06:43:21.155Z,28.19
2023-04-02T06:44:21.162Z,28.21
2023-04-02T06:45:21.124Z,28.23
2023-04-02T06:46:21.167Z,28.23
2023-04-02T06:47:21.108Z,28.21
2023-04-02T06:48:21.122Z,28.22
2023-04-02T06:49:21.110Z,28.22
2023-04-02T06:50:21.086Z,28.26
2023-04-02T06:51:21.079Z,28.35
2023-04-02T06:52:21.080Z,28.42
2023-04-02T06:53:21.086Z,28.49
2023-04-02T06:54:21.098Z,28.48
2023-04-02T06:55:21.102Z,28.55
2023-04-02T06:56:21.047Z,28.59
2023-04-02T06:57:21.076Z,28.64
2023-04-02T06:58:21.044Z,28.64
2023-04-02T06:59:21.033Z,28.59
2023-04-02T07:00:21.020Z,28.60
2023-04-02T07:01:21.044Z,28.64
2023-04-02T07:02:21.028Z,28.62
2023-04-02T07:03:21.019Z,28.62
2023-04-02T07:04:21.036Z,28.66
2023-04-02T07:05:21.033Z,28.64
2023-04-02T07:06:21.049Z,28.69
2023-04-02T07:07:21.056Z,28.70
2023-04-02T07:08:21.039Z,28.73
2023-04-02T07:09:21.037Z,28.74
2023-04-02T07:10:21.075Z,28.82
2023-04-02T07:11:21.128Z,28.87
2023-04-02T07:12:21.094Z,28.93
2023-04-02T07:13:21.135Z,29.00
2023-04-02T07:14:21.184Z,29.03
2023-04-02T07:15:21.245Z,29.09
2023-04-02T07:16:21.407Z,29.13
2023-04-02T07:17:21.424Z,29.18
2023-04-02T07:18:21.454Z,29.20
2023-04-02T07:19:21.512Z,29.24
2023-04-02T07:20:21.565Z,29.28
2023-04-02T07:21:21.603Z,29.25
2023-04-02T07:22:21.634Z,29.20
2023-04-02T07:23:21.707Z,29.23
2023-04-02T07:24:21.768Z,29.24
2023-04-02T07:25:21.805Z,29.28
2023-04-02T07:26:21.889Z,29.27
2023-04-02T07:27:21.939Z,29.21
2023-04-02T07:28:22.871Z,29.27
2023-04-02T07:29:22.037Z,29.30
2023-04-02T07:30:22.097Z,29.24
2023-04-02T07:31:22.164Z,29.25
2023-04-02T07:32:22.192Z,29.31
2023-04-02T07:33:22.245Z,29.37
2023-04-02T07:34:22.272Z,29.35
2023-04-02T07:35:22.330Z,29.30
2023-04-02T07:36:22.416Z,29.34
2023-04-02T07:37:22.426Z,29.37
2023-04-02T07:38:22.459Z,29.35
2023-04-02T07:39:22.553Z,29.34
2023-04-02T07:40:22.572Z,29.30
2023-04-02T07:41:22.581Z,29.34
2023-04-02T07:42:22.640Z,29.37
2023-04-02T07:43:22.712Z,29.43
2023-04-02T07:44:22.737Z,29.37
2023-04-02T07:45:22.759Z,29.37
2023-04-02T07:46:22.838Z,29.35
2023-04-02T07:47:22.878Z,29.44
2023-04-02T07:48:22.877Z,29.51
2023-04-02T07:49:22.891Z,29.55
2023-04-02T07:50:23.018Z,29.58
2023-04-02T07:51:22.971Z,29.63
2023-04-02T07:52:22.990Z,29.64
2023-04-02T07:53:23.009Z,29.69
2023-04-02T07:54:23.005Z,29.71
2023-04-02T07:55:23.018Z,29.75
2023-04-02T07:56:23.047Z,29.74
2023-04-02T07:57:23.095Z,29.77
2023-04-02T07:58:23.083Z,29.81
2023-04-02T07:59:23.073Z,29.82
2023-04-02T08:00:23.083Z,29.85
2023-04-02T08:01:23.088Z,29.79
2023-04-02T08:02:23.295Z,29.82
2023-04-02T08:03:23.196Z,29.86
2023-04-02T08:04:23.354Z,29.86
2023-04-02T08:05:23.154Z,29.88
2023-04-02T08:06:23.137Z,29.91
2023-04-02T08:07:23.152Z,29.91
2023-04-02T08:08:23.171Z,29.93
2023-04-02T08:09:23.156Z,29.92
2023-04-02T08:10:23.207Z,29.96
2023-04-02T08:11:23.235Z,29.98
2023-04-02T08:12:23.220Z,29.99
2023-04-02T08:13:23.211Z,30.01
2023-04-02T08:14:23.216Z,29.99
2023-04-02T08:15:23.200Z,30.04
2023-04-02T08:16:23.252Z,30.04
2023-04-02T08:17:23.338Z,30.06
2023-04-02T08:18:23.210Z,30.06
2023-04-02T08:19:23.227Z,30.06
2023-04-02T08:20:23.225Z,30.09
2023-04-02T08:21:23.248Z,30.08
2023-04-02T08:22:23.252Z,30.12
2023-04-02T08:23:23.257Z,30.11
2023-04-02T08:24:23.285Z,30.14
2023-04-02T08:25:23.287Z,30.16
2023-04-02T08:26:23.318Z,30.16
2023-04-02T08:27:23.347Z,30.19
2023-04-02T08:28:23.412Z,30.19
2023-04-02T08:29:23.470Z,30.19
2023-04-02T08:30:23.514Z,30.22
2023-04-02T08:31:23.669Z,30.25
2023-04-02T08:32:23.640Z,30.26
2023-04-02T08:33:23.720Z,30.30
2023-04-02T08:34:23.752Z,30.29
2023-04-02T08:35:23.801Z,30.30
2023-04-02T08:36:23.875Z,30.30
2023-04-02T08:37:23.918Z,30.35
2023-04-02T08:38:23.961Z,30.36
2023-04-02T08:39:24.015Z,30.38
2023-04-02T08:40:24.099Z,30.36
2023-04-02T08:41:24.124Z,30.39
2023-04-02T08:42:24.185Z,30.40
2023-04-02T08:43:25.112Z,30.44
2023-04-02T08:44:24.264Z,30.46
2023-04-02T08:45:25.614Z,30.43
2023-04-02T08:46:24.347Z,30.47
2023-04-02T08:47:24.399Z,30.49
2023-04-02T08:48:24.428Z,30.50
2023-04-02T08:49:24.448Z,30.52
2023-04-02T08:50:24.481Z,30.53
2023-04-02T08:51:24.519Z,30.57
2023-04-02T08:52:24.574Z,30.57
2023-04-02T08:53:24.601Z,30.56
2023-04-02T08:54:24.608Z,30.49
2023-04-02T08:55:24.631Z,30.49
2023-04-02T08:56:24.660Z,30.42
2023-04-02T08:57:24.744Z,30.40
2023-04-02T08:58:24.747Z,30.40
2023-04-02T08:59:24.790Z,30.36
2023-04-02T09:00:24.817Z,30.36
2023-04-02T09:01:24.879Z,30.30
2023-04-02T09:02:24.952Z,30.26
2023-04-02T09:03:24.947Z,30.25
2023-04-02T09:04:25.065Z,30.25
2023-04-02T09:05:25.058Z,30.23
2023-04-02T09:06:25.108Z,30.22
2023-04-02T09:07:25.155Z,30.25
2023-04-02T09:08:25.200Z,30.23
2023-04-02T09:09:25.288Z,30.23
2023-04-02T09:10:25.314Z,30.22
2023-04-02T09:11:25.402Z,30.23
2023-04-02T09:12:25.439Z,30.25
2023-04-02T09:13:25.486Z,30.28
2023-04-02T09:14:25.545Z,30.30
2023-04-02T09:15:25.615Z,30.29
2023-04-02T09:16:25.681Z,30.32
2023-04-02T09:17:25.739Z,30.36
2023-04-02T09:18:26.547Z,30.43
2023-04-02T09:19:25.802Z,30.40
2023-04-02T09:20:25.850Z,30.44
2023-04-02T09:21:25.870Z,30.42
2023-04-02T09:22:25.929Z,30.44
2023-04-02T09:23:25.990Z,30.47
2023-04-02T09:24:26.561Z,30.44
2023-04-02T09:25:26.068Z,30.46
2023-04-02T09:26:26.084Z,30.43
2023-04-02T09:27:26.146Z,30.40
2023-04-02T09:28:26.184Z,30.39
2023-04-02T09:29:26.243Z,30.38
2023-04-02T09:30:26.319Z,30.35
2023-04-02T09:31:26.368Z,30.35
2023-04-02T09:32:26.421Z,30.33
2023-04-02T09:33:26.489Z,30.38
2023-04-02T09:34:26.510Z,30.36
2023-04-02T09:35:27.139Z,30.35
2023-04-02T09:36:26.669Z,30.35
2023-04-02T09:37:26.675Z,30.33
2023-04-02T09:38:26.730Z,30.35
2023-04-02T09:39:26.801Z,30.32
2023-04-02T09:40:26.847Z,30.32
2023-04-02T09:41:26.899Z,30.30
2023-04-02T09:42:26.953Z,30.30
2023-04-02T09:43:27.034Z,30.29
2023-04-02T09:44:27.079Z,30.28
2023-04-02T09:45:27.162Z,30.29
2023-04-02T09:46:27.226Z,30.26
2023-04-02T09:47:27.323Z,30.28
2023-04-02T09:48:27.324Z,30.25
2023-04-02T09:49:27.388Z,30.23
2023-04-02T09:50:27.432Z,30.26
2023-04-02T09:51:27.487Z,30.22
2023-04-02T09:52:27.582Z,30.19
2023-04-02T09:53:27.585Z,30.22
2023-04-02T09:54:27.654Z,30.19
2023-04-02T09:55:27.713Z,30.15
2023-04-02T09:56:27.762Z,30.15
2023-04-02T09:57:27.847Z,30.15
2023-04-02T09:58:27.869Z,30.14
2023-04-02T09:59:27.943Z,30.14
2023-04-02T10:01:28.029Z,30.08
2023-04-02T10:02:28.088Z,30.09
2023-04-02T10:03:28.062Z,30.06
2023-04-02T10:04:28.114Z,30.04
2023-04-02T10:05:39.987Z,30.04
2023-04-02T10:06:29.073Z,30.04
2023-04-02T10:07:28.050Z,30.04
2023-04-02T10:08:28.068Z,30.02
2023-04-02T10:09:28.028Z,30.01
2023-04-02T10:10:28.049Z,29.99
2023-04-02T10:11:36.639Z,29.99
2023-04-02T10:12:29.016Z,29.96
2023-04-02T10:13:28.000Z,29.98
2023-04-02T10:14:28.007Z,29.95
2023-04-02T10:15:27.987Z,29.93
2023-04-02T10:16:28.068Z,29.96
2023-04-02T10:17:27.989Z,29.92
2023-04-02T10:18:27.969Z,29.93
2023-04-02T10:19:27.968Z,29.92
2023-04-02T10:20:28.521Z,29.92
2023-04-02T10:21:27.943Z,29.92
2023-04-02T10:22:27.950Z,29.92
2023-04-02T10:23:27.950Z,29.89
2023-04-02T10:24:27.949Z,29.91
2023-04-02T10:25:27.940Z,29.88
2023-04-02T10:26:27.926Z,29.86
2023-04-02T10:27:27.936Z,29.88
2023-04-02T10:28:27.893Z,29.88
2023-04-02T10:29:27.891Z,29.88
2023-04-02T10:30:27.906Z,29.89
2023-04-02T10:31:28.024Z,29.91
2023-04-02T10:32:27.923Z,29.91
2023-04-02T10:33:27.910Z,29.89
2023-04-02T10:34:27.925Z,29.93
2023-04-02T10:35:27.978Z,29.96
2023-04-02T10:36:27.934Z,29.99
2023-04-02T10:37:27.964Z,30.06
2023-04-02T10:38:27.996Z,30.08
2023-04-02T10:39:28.023Z,30.08
2023-04-02T10:40:28.029Z,30.08
2023-04-02T10:41:28.050Z,30.11
2023-04-02T10:42:28.119Z,30.11
2023-04-02T10:43:28.198Z,30.11
2023-04-02T10:44:28.236Z,30.15
2023-04-02T10:45:28.263Z,30.14
2023-04-02T10:46:28.358Z,30.16
2023-04-02T10:47:28.396Z,30.19
2023-04-02T10:48:28.410Z,30.18
2023-04-02T10:49:28.495Z,30.23
2023-04-02T10:50:28.520Z,30.19
2023-04-02T10:51:28.577Z,30.15
2023-04-02T10:52:28.652Z,30.12
2023-04-02T10:53:28.704Z,30.12
2023-04-02T10:54:28.714Z,30.09
2023-04-02T10:55:28.773Z,30.06
2023-04-02T10:56:35.178Z,30.05
2023-04-02T10:57:29.843Z,30.02
2023-04-02T10:58:28.799Z,30.05
2023-04-02T10:59:28.777Z,30.02
2023-04-02T11:00:28.778Z,30.01
2023-04-02T11:01:28.800Z,30.01
2023-04-02T11:02:28.921Z,29.98
2023-04-02T11:03:28.855Z,29.96
2023-04-02T11:04:28.742Z,29.95
2023-04-02T11:05:28.726Z,29.93
2023-04-02T11:06:28.747Z,29.92
2023-04-02T11:07:28.718Z,29.92
2023-04-02T11:08:28.751Z,29.91
2023-04-02T11:09:28.770Z,29.88
2023-04-02T11:10:28.765Z,29.88
2023-04-02T11:11:28.762Z,29.85
2023-04-02T11:12:28.762Z,29.84
2023-04-02T11:13:28.776Z,29.81
2023-04-02T11:14:28.837Z,29.79
2023-04-02T11:15:28.959Z,29.78
2023-04-02T11:16:29.040Z,29.78
2023-04-02T11:17:28.965Z,29.77
2023-04-02T11:18:28.961Z,29.77
2023-04-02T11:19:28.936Z,29.74
2023-04-02T11:20:29.053Z,29.71
2023-04-02T11:21:29.047Z,29.71
2023-04-02T11:22:29.056Z,29.74
2023-04-02T11:23:29.050Z,29.69
2023-04-02T11:24:29.062Z,29.69
2023-04-02T11:25:29.067Z,29.68
2023-04-02T11:26:29.081Z,29.67
2023-04-02T11:27:29.090Z,29.64
2023-04-02T11:28:29.089Z,29.65
2023-04-02T11:29:29.099Z,29.64
2023-04-02T11:30:29.158Z,29.63
2023-04-02T11:31:29.146Z,29.64
2023-04-02T11:32:29.198Z,29.61
2023-04-02T11:33:36.636Z,29.60
2023-04-02T11:34:30.171Z,29.61
2023-04-02T11:35:29.164Z,29.60
2023-04-02T11:36:29.136Z,29.57
2023-04-02T11:37:29.127Z,29.58
2023-04-02T11:38:29.117Z,29.57
2023-04-02T11:39:29.100Z,29.54
2023-04-02T11:40:29.094Z,29.57
2023-04-02T11:41:29.109Z,29.51
2023-04-02T11:42:29.081Z,29.51
2023-04-02T11:43:29.071Z,29.50
2023-04-02T11:44:29.096Z,29.51
2023-04-02T11:45:29.066Z,29.48
2023-04-02T11:46:29.074Z,29.50
2023-04-02T11:47:29.077Z,29.50
2023-04-02T11:48:29.045Z,29.47
2023-04-02T11:49:29.055Z,29.45
2023-04-02T11:50:29.035Z,29.47
2023-04-02T11:51:29.020Z,29.44
2023-04-02T11:52:29.026Z,29.45
2023-04-02T11:53:28.999Z,29.44
2023-04-02T11:54:29.006Z,29.43
2023-04-02T11:55:28.980Z,29.44
2023-04-02T11:56:28.978Z,29.44
2023-04-02T11:57:29.012Z,29.44
2023-04-02T11:58:28.976Z,29.40
2023-04-02T11:59:29.002Z,29.41
2023-04-02T12:00:28.957Z,29.41
2023-04-02T12:01:28.960Z,29.40
2023-04-02T12:02:29.082Z,29.38
2023-04-02T12:03:28.924Z,29.40
2023-04-02T12:04:28.922Z,29.38
2023-04-02T12:05:29.010Z,29.38
2023-04-02T12:06:28.928Z,29.38
2023-04-02T12:07:28.923Z,29.35
2023-04-02T12:08:28.914Z,29.37
2023-04-02T12:09:28.910Z,29.35
2023-04-02T12:10:28.935Z,29.35
2023-04-02T12:11:28.918Z,29.34
2023-04-02T12:12:28.964Z,29.34
2023-04-02T12:13:28.955Z,29.34
2023-04-02T12:14:28.940Z,29.35
2023-04-02T12:15:28.951Z,29.34
2023-04-02T12:16:28.989Z,29.34
2023-04-02T12:17:29.028Z,29.33
2023-04-02T12:18:29.009Z,29.33
2023-04-02T12:19:29.027Z,29.33
2023-04-02T12:20:29.046Z,29.34
2023-04-02T12:21:29.056Z,29.31
2023-04-02T12:22:29.073Z,29.34
2023-04-02T12:23:29.125Z,29.34
2023-04-02T12:24:29.120Z,29.31
2023-04-02T12:25:29.163Z,29.33
2023-04-02T12:26:29.148Z,29.31
2023-04-02T12:27:29.173Z,29.31
2023-04-02T12:28:29.204Z,29.34
2023-04-02T12:29:29.210Z,29.31
2023-04-02T12:30:29.237Z,29.31
2023-04-02T12:31:29.316Z,29.30
2023-04-02T12:32:30.027Z,29.30
2023-04-02T12:33:29.252Z,29.31
2023-04-02T12:34:29.273Z,29.30
2023-04-02T12:35:29.286Z,29.31
2023-04-02T12:36:29.289Z,29.31
2023-04-02T12:37:29.340Z,29.31
2023-04-02T12:38:29.325Z,29.28
2023-04-02T12:39:29.340Z,29.28
2023-04-02T12:40:29.353Z,29.27
2023-04-02T12:41:29.387Z,29.28
2023-04-02T12:42:29.391Z,29.28
2023-04-02T12:43:29.423Z,29.28
2023-04-02T12:44:29.451Z,29.30
2023-04-02T12:45:29.846Z,29.28
2023-04-02T12:46:29.525Z,29.25
2023-04-02T12:47:29.548Z,29.27
2023-04-02T12:48:29.573Z,29.27
2023-04-02T12:49:29.543Z,29.28
2023-04-02T12:50:29.574Z,29.27
2023-04-02T12:51:29.603Z,29.27
2023-04-02T12:52:29.624Z,29.27
2023-04-02T12:53:29.620Z,29.24
2023-04-02T12:54:29.663Z,29.24